Time;durP1;ratioP1;P1;durP2;ratioP2;P2;SDS_P1;SDS_P2;PMS_P1;PMS_P2;Temp;Humidity;BMP_temperature;BMP_pressure;BME280_temperature;BME280_humidity;BME280_pressure;Samples;Min_cycle;Max_cycle;Signal;HPM_P1;HPM_P2
2022/07/01 00:00:07;;;;;;;14.75;9.70;;;;;;;19.44;64.50;100557.97;5136635;27;20094;-70
2022/07/01 00:02:33;;;;;;;14.15;10.13;;;;;;;19.38;64.76;100553.44;5137022;27;20128;-70
2022/07/01 00:05:00;;;;;;;14.40;10.90;;;;;;;19.27;65.36;100552.25;5136469;27;20079;-70
2022/07/01 00:07:27;;;;;;;11.73;9.85;;;;;;;19.35;64.95;100553.88;5136763;27;20134;-70
2022/07/01 00:09:53;;;;;;;11.98;10.18;;;;;;;19.32;64.69;100559.78;5136354;27;20085;-70
2022/07/01 00:12:20;;;;;;;13.48;10.48;;;;;;;19.34;65.02;100551.38;5136613;27;20434;-70
2022/07/01 00:14:46;;;;;;;11.85;9.80;;;;;;;19.25;65.09;100548.13;5137130;27;20094;-69
2022/07/01 00:17:13;;;;;;;12.70;10.38;;;;;;;19.32;64.96;100546.16;5137583;27;20130;-70
2022/07/01 00:19:39;;;;;;;13.43;10.68;;;;;;;19.22;65.54;100543.13;5136870;27;20391;-70
2022/07/01 00:22:07;;;;;;;11.98;9.60;;;;;;;19.21;65.66;100542.28;5136581;27;20043;-70
2022/07/01 00:24:34;;;;;;;11.38;9.77;;;;;;;19.18;65.66;100537.28;5136508;27;20130;-70
2022/07/01 00:27:00;;;;;;;15.25;10.80;;;;;;;19.13;66.11;100534.38;5135743;27;20092;-70
2022/07/01 00:29:27;;;;;;;11.77;10.32;;;;;;;19.11;66.35;100530.25;5136645;27;20463;-70
2022/07/01 00:31:53;;;;;;;20.25;11.70;;;;;;;18.94;66.93;100522.63;5135873;27;20130;-70
2022/07/01 00:34:20;;;;;;;15.20;10.93;;;;;;;18.95;67.06;100518.84;5136098;27;20133;-70
2022/07/01 00:36:46;;;;;;;17.95;11.27;;;;;;;18.93;67.32;100528.25;5136247;27;20138;-70
2022/07/01 00:39:13;;;;;;;12.95;11.57;;;;;;;19.07;66.64;100529.00;5136389;27;20142;-70
2022/07/01 00:41:39;;;;;;;15.38;12.55;;;;;;;19.00;66.94;100524.47;5136278;27;20074;-70
2022/07/01 00:44:15;;;;;;;15.40;11.00;;;;;;;18.93;67.35;100518.25;5136947;27;20079;-71
2022/07/01 00:46:42;;;;;;;17.83;11.82;;;;;;;19.02;67.28;100516.06;5135926;27;20129;-70
2022/07/01 00:49:09;;;;;;;17.85;12.05;;;;;;;18.96;67.43;100517.78;5136128;27;20486;-70
2022/07/01 00:51:35;;;;;;;12.20;11.00;;;;;;;18.95;67.41;100524.28;5135929;28;20054;-70
2022/07/01 00:54:02;;;;;;;15.48;12.70;;;;;;;18.97;67.44;100527.63;5117743;28;20054;-70
2022/07/01 00:56:29;;;;;;;16.40;12.13;;;;;;;19.04;66.90;100524.03;5136192;28;20047;-69
2022/07/01 00:58:56;;;;;;;17.10;13.15;;;;;;;18.93;67.69;100523.69;5136059;28;20074;-69
2022/07/01 01:01:22;;;;;;;15.52;12.27;;;;;;;18.92;67.83;100522.00;5136106;28;20166;-70
2022/07/01 01:03:49;;;;;;;17.83;12.77;;;;;;;18.92;68.08;100522.00;5136520;28;20082;-70
2022/07/01 01:07:12;;;;;;;15.45;11.98;;;;;;;19.07;67.16;100523.56;5136261;28;20138;-70
2022/07/01 01:09:40;;;;;;;17.35;13.77;;;;;;;18.98;68.06;100521.13;5135742;28;20522;-70
2022/07/01 01:12:07;;;;;;;15.90;13.23;;;;;;;19.09;67.20;100537.78;5135792;28;20138;-70
2022/07/01 01:14:47;;;;;;;16.70;12.80;;;;;;;19.18;67.17;100526.41;5136087;27;20050;-69
2022/07/01 01:17:15;;;;;;;18.95;14.25;;;;;;;19.14;67.61;100521.63;5136190;28;20108;-70
2022/07/01 01:19:42;;;;;;;14.88;13.15;;;;;;;19.30;66.50;100517.53;5135694;28;20078;-69
2022/07/01 01:22:10;;;;;;;17.35;12.82;;;;;;;19.42;65.94;100522.00;5136220;28;20169;-69
2022/07/01 01:24:37;;;;;;;15.50;13.43;;;;;;;19.51;65.94;100528.00;5135730;28;20051;-69
2022/07/01 01:27:05;;;;;;;20.00;13.40;;;;;;;19.41;65.77;100520.31;5135341;28;20062;-69
2022/07/01 01:29:32;;;;;;;17.10;14.57;;;;;;;19.29;66.72;100515.88;5134846;28;20078;-69
2022/07/01 01:31:59;;;;;;;16.70;13.68;;;;;;;19.16;67.61;100520.34;5135597;28;20150;-69
2022/07/01 01:34:26;;;;;;;18.83;15.93;;;;;;;19.10;67.79;100517.69;5135390;28;20125;-69
2022/07/01 01:36:52;;;;;;;19.38;13.80;;;;;;;19.23;67.03;100523.00;5135119;28;20086;-69
2022/07/01 01:39:20;;;;;;;19.85;16.27;;;;;;;18.95;68.61;100516.13;5135689;28;20055;-69
2022/07/01 01:41:47;;;;;;;21.13;17.67;;;;;;;18.90;69.08;100513.22;5136783;28;20079;-68
2022/07/01 01:44:14;;;;;;;22.92;17.40;;;;;;;18.90;69.00;100506.94;5136067;28;20521;-68
2022/07/01 01:46:40;;;;;;;23.05;17.10;;;;;;;18.82;69.26;100494.44;5138923;27;20099;-69
2022/07/01 01:49:07;;;;;;;17.83;14.95;;;;;;;18.74;69.49;100495.53;5140190;27;20051;-68
2022/07/01 01:51:35;;;;;;;29.38;16.67;;;;;;;18.64;70.18;100488.94;5140087;27;20053;-68
2022/07/01 01:54:01;;;;;;;22.08;16.73;;;;;;;18.58;70.52;100485.19;5139921;27;20051;-68
2022/07/01 01:56:29;;;;;;;23.23;18.35;;;;;;;18.49;70.95;100481.94;5139684;27;20494;-70
2022/07/01 01:58:57;;;;;;;20.35;16.65;;;;;;;18.57;70.69;100475.38;5139736;27;20475;-70
2022/07/01 02:01:24;;;;;;;19.60;15.38;;;;;;;18.72;69.78;100472.34;5138748;27;20134;-69
2022/07/01 02:03:52;;;;;;;21.20;17.75;;;;;;;18.83;69.82;100468.94;5139617;27;20047;-69
2022/07/01 02:06:20;;;;;;;21.67;16.40;;;;;;;18.68;70.37;100465.69;5139707;27;20047;-69
2022/07/01 02:08:48;;;;;;;18.50;16.10;;;;;;;18.98;68.74;100474.09;5139028;27;20110;-70
2022/07/01 02:11:14;;;;;;;18.83;15.70;;;;;;;18.91;69.11;100470.56;5139374;27;20095;-69
2022/07/01 02:13:41;;;;;;;19.33;15.15;;;;;;;19.06;68.29;100468.34;5139574;27;20458;-70
2022/07/01 02:16:07;;;;;;;24.40;16.58;;;;;;;18.90;69.36;100464.28;5139056;27;20126;-69
2022/07/01 02:18:34;;;;;;;19.77;16.70;;;;;;;18.77;69.97;100465.22;5139511;27;20465;-70
2022/07/01 02:21:00;;;;;;;19.80;17.50;;;;;;;18.66;70.69;100478.69;5139288;27;20043;-70
2022/07/01 02:23:33;;;;;;;25.13;18.98;;;;;;;18.64;70.70;100476.19;5139105;27;20463;-70
2022/07/01 02:25:59;;;;;;;21.45;17.88;;;;;;;18.66;70.39;100479.53;5138473;27;20443;-70
2022/07/01 02:28:26;;;;;;;20.77;17.50;;;;;;;18.58;70.85;100476.22;5139458;27;20055;-69
2022/07/01 02:30:52;;;;;;;22.70;17.40;;;;;;;18.49;71.19;100473.78;5138910;27;20047;-70
2022/07/01 02:33:19;;;;;;;18.33;16.00;;;;;;;18.59;70.46;100472.47;5138786;27;20065;-70
2022/07/01 02:35:46;;;;;;;21.77;17.65;;;;;;;18.59;70.58;100477.91;5139013;27;20046;-70
2022/07/01 02:38:15;;;;;;;19.10;16.45;;;;;;;18.57;70.73;100477.28;5138236;27;20053;-70
2022/07/01 02:40:41;;;;;;;23.67;17.70;;;;;;;18.70;70.31;100485.34;5139015;27;20070;-70
2022/07/01 02:43:08;;;;;;;23.10;16.00;;;;;;;18.84;69.46;100496.97;5138591;27;20481;-70
2022/07/01 02:45:35;;;;;;;20.52;16.65;;;;;;;18.79;69.98;100500.31;5139123;27;20558;-69
2022/07/01 02:48:02;;;;;;;20.85;16.70;;;;;;;18.88;69.76;100504.44;5138977;27;20126;-69
2022/07/01 02:50:28;;;;;;;20.88;16.63;;;;;;;18.82;69.82;100509.91;5138350;27;20126;-69
2022/07/01 02:52:56;;;;;;;21.73;16.33;;;;;;;18.76;70.00;100506.22;5138996;27;20043;-69
2022/07/01 02:55:23;;;;;;;20.67;16.42;;;;;;;18.75;70.35;100507.25;5138575;27;20509;-70
2022/07/01 02:57:51;;;;;;;22.23;19.02;;;;;;;18.85;69.97;100514.91;5136978;27;20456;-70
2022/07/01 03:00:19;;;;;;;18.70;16.42;;;;;;;18.98;69.18;100520.28;5137471;27;20142;-70
2022/07/01 03:02:46;;;;;;;21.35;17.75;;;;;;;18.99;69.04;100517.34;5138187;27;20047;-69
2022/07/01 03:05:12;;;;;;;21.90;15.80;;;;;;;19.13;68.32;100518.06;5138533;27;20501;-69
2022/07/01 03:07:39;;;;;;;19.95;16.10;;;;;;;19.07;68.93;100520.84;5139042;27;20129;-70
2022/07/01 03:10:08;;;;;;;22.00;16.33;;;;;;;19.06;68.76;100516.47;5137467;27;20096;-70
2022/07/01 03:12:35;;;;;;;21.13;16.95;;;;;;;19.06;68.94;100509.13;5133083;27;20078;-70
2022/07/01 03:15:10;;;;;;;29.15;19.65;;;;;;;18.92;70.48;100504.81;5138290;27;20049;-69
2022/07/01 03:17:39;;;;;;;19.65;16.48;;;;;;;19.04;69.30;100513.16;5138514;27;20467;-69
2022/07/01 03:20:08;;;;;;;19.15;17.02;;;;;;;19.11;68.91;100517.47;5138267;27;20395;-70
2022/07/01 03:22:36;;;;;;;22.05;18.95;;;;;;;18.98;69.84;100515.69;5138215;27;20462;-70
2022/07/01 03:25:04;;;;;;;25.05;18.95;;;;;;;19.08;69.25;100527.97;5138298;27;20093;-69
2022/07/01 03:27:31;;;;;;;22.83;17.30;;;;;;;19.37;67.86;100519.13;5137188;27;20094;-70
2022/07/01 03:29:58;;;;;;;24.27;17.60;;;;;;;19.41;67.96;100506.72;5137190;27;20138;-70
2022/07/01 03:32:25;;;;;;;20.85;16.77;;;;;;;19.41;67.82;100511.34;5137199;27;20051;-69
2022/07/01 03:34:52;;;;;;;19.33;16.75;;;;;;;19.44;67.74;100509.00;5136734;27;20057;-70
2022/07/01 03:37:20;;;;;;;26.80;20.83;;;;;;;19.33;68.83;100503.47;5137150;27;20134;-70
2022/07/01 03:39:47;;;;;;;19.30;17.30;;;;;;;19.35;68.28;100501.38;5137391;27;20130;-69
2022/07/01 03:42:14;;;;;;;18.13;16.13;;;;;;;19.34;68.46;100514.13;5137058;27;20059;-71
2022/07/01 03:44:41;;;;;;;21.98;17.23;;;;;;;19.34;68.39;100510.56;5137446;27;20107;-70
2022/07/01 03:47:07;;;;;;;23.58;18.75;;;;;;;19.49;67.65;100505.63;5137543;27;20079;-70
2022/07/01 03:49:35;;;;;;;24.17;16.95;;;;;;;19.63;67.07;100511.78;5137304;27;20486;-70
2022/07/01 03:52:03;;;;;;;19.92;16.42;;;;;;;19.72;66.41;100505.81;5137076;27;20164;-68
2022/07/01 03:54:30;;;;;;;26.90;18.77;;;;;;;19.73;67.03;100517.56;5137316;27;20051;-71
2022/07/01 03:57:00;;;;;;;23.45;17.20;;;;;;;19.78;66.74;100512.25;5137532;27;20095;-71
2022/07/01 03:59:28;;;;;;;20.47;18.17;;;;;;;19.74;67.02;100508.31;5137205;27;20082;-70
2022/07/01 04:01:55;;;;;;;20.45;17.00;;;;;;;19.77;66.76;100507.88;5136890;27;20054;-69
2022/07/01 04:04:23;;;;;;;19.55;17.30;;;;;;;19.74;66.83;100513.75;5118982;27;20071;-69
2022/07/01 04:06:49;;;;;;;23.20;18.77;;;;;;;19.70;67.45;100507.94;5137492;27;20559;-69
2022/07/01 04:09:17;;;;;;;23.73;17.75;;;;;;;19.79;66.53;100510.34;5136901;27;20141;-69
2022/07/01 04:11:46;;;;;;;20.95;17.92;;;;;;;19.96;65.91;100509.53;5137140;27;20078;-69
2022/07/01 04:14:12;;;;;;;22.73;16.90;;;;;;;19.94;66.21;100517.09;5137108;27;20148;-70
2022/07/01 04:16:39;;;;;;;20.58;17.83;;;;;;;19.96;66.51;100522.31;5136854;27;20130;-70
2022/07/01 04:19:08;;;;;;;24.20;18.45;;;;;;;20.05;66.25;100520.13;5136851;27;20082;-69
2022/07/01 04:24:19;;;;;;;26.15;18.50;;;;;;;19.93;66.77;100515.44;5136803;27;20449;-70
2022/07/01 04:26:46;;;;;;;19.98;17.77;;;;;;;19.90;67.04;100512.31;5136310;27;20047;-70
2022/07/01 04:29:12;;;;;;;21.10;17.80;;;;;;;19.90;66.97;100504.16;5135651;27;20086;-70
2022/07/01 04:31:39;;;;;;;22.75;19.15;;;;;;;19.85;67.26;100498.56;5135984;27;20082;-70
2022/07/01 04:34:07;;;;;;;21.60;19.00;;;;;;;19.92;67.12;100507.50;5135927;27;20380;-70
2022/07/01 04:36:35;;;;;;;22.85;18.98;;;;;;;19.92;67.09;100510.22;5136303;27;20075;-70
2022/07/01 04:39:03;;;;;;;25.08;20.77;;;;;;;19.92;67.55;100513.75;5135756;27;20057;-71
2022/07/01 04:44:16;;;;;;;26.00;19.65;;;;;;;19.95;67.79;100510.59;5136840;27;20043;-71
2022/07/01 04:46:43;;;;;;;29.38;24.27;;;;;;;19.70;69.93;100504.41;5135585;27;20078;-70
2022/07/01 04:49:10;;;;;;;29.90;23.38;;;;;;;19.76;69.85;100511.63;5136197;27;20047;-70
2022/07/01 04:51:36;;;;;;;27.10;22.35;;;;;;;19.70;70.39;100501.69;5137506;27;20131;-70
2022/07/01 04:54:05;;;;;;;25.48;21.05;;;;;;;19.74;69.89;100497.44;5136770;28;20413;-69
2022/07/01 04:56:33;;;;;;;28.08;23.10;;;;;;;19.73;69.72;100501.22;5136974;28;20409;-70
2022/07/01 04:59:01;;;;;;;30.52;22.60;;;;;;;19.79;69.86;100507.63;5137201;28;20050;-70
2022/07/01 05:01:28;;;;;;;23.63;21.10;;;;;;;19.92;69.17;100519.22;5136770;28;20120;-70
2022/07/01 05:03:56;;;;;;;30.42;21.92;;;;;;;20.01;69.11;100514.31;5137325;28;20475;-70
2022/07/01 05:06:23;;;;;;;26.60;21.80;;;;;;;20.11;68.72;100517.31;5137195;28;20051;-71
2022/07/01 05:08:50;;;;;;;27.40;23.10;;;;;;;20.02;69.62;100509.69;5137019;28;20136;-69
2022/07/01 05:11:16;;;;;;;31.67;21.65;;;;;;;20.01;69.19;100506.13;5137086;28;20122;-69
2022/07/01 05:13:43;;;;;;;26.27;21.00;;;;;;;20.11;68.74;100513.78;5136347;28;20143;-69
2022/07/01 05:16:09;;;;;;;24.83;21.17;;;;;;;20.32;67.68;100518.72;5135683;27;20086;-70
2022/07/01 05:24:08;;;;;;;27.45;22.08;;;;;;;20.65;66.59;100540.09;5140129;27;20071;-69
2022/07/01 05:26:34;;;;;;;24.27;19.75;;;;;;;20.62;66.25;100547.91;5139473;27;20055;-68
2022/07/01 05:29:01;;;;;;;31.95;20.90;;;;;;;20.73;66.39;100551.72;5139803;27;20047;-68
2022/07/01 05:31:28;;;;;;;26.35;21.45;;;;;;;20.62;66.91;100553.34;5140056;27;20085;-68
2022/07/01 05:33:54;;;;;;;25.95;19.30;;;;;;;20.81;65.41;100557.69;5139728;27;20050;-69
2022/07/01 05:36:24;;;;;;;25.00;19.63;;;;;;;20.73;65.80;100571.66;5122082;27;20051;-69
2022/07/01 05:38:50;;;;;;;25.27;19.75;;;;;;;20.82;65.78;100581.16;5140109;27;20137;-69
2022/07/01 05:41:17;;;;;;;23.60;19.17;;;;;;;20.88;65.49;100591.16;5139960;27;20142;-68
2022/07/01 05:43:43;;;;;;;24.27;18.98;;;;;;;20.91;64.90;100585.25;5139810;27;20451;-68
2022/07/01 05:46:10;;;;;;;22.17;18.95;;;;;;;20.99;64.71;100581.34;5141071;27;20058;-68
2022/07/01 05:48:37;;;;;;;24.92;19.92;;;;;;;20.97;64.74;100591.63;5139698;27;20090;-68
2022/07/01 05:51:03;;;;;;;26.77;19.52;;;;;;;20.90;65.35;100602.66;5139771;27;20406;-69
2022/07/01 05:53:30;;;;;;;23.80;19.52;;;;;;;20.90;65.11;100604.53;5140043;27;20051;-70
2022/07/01 05:55:56;;;;;;;24.88;18.98;;;;;;;20.85;65.35;100612.59;5139889;27;20053;-68
2022/07/01 05:58:23;;;;;;;30.08;20.35;;;;;;;20.90;65.23;100608.13;5140040;27;20134;-69
2022/07/01 06:00:50;;;;;;;26.63;19.17;;;;;;;21.01;64.61;100605.63;5139367;27;20083;-70
2022/07/01 06:03:16;;;;;;;32.55;19.98;;;;;;;20.88;64.93;100612.97;5139842;27;20158;-69
2022/07/01 06:05:43;;;;;;;24.20;20.15;;;;;;;20.85;65.16;100618.88;5139984;27;20050;-69
2022/07/01 06:08:10;;;;;;;23.27;19.90;;;;;;;20.97;64.89;100618.09;5139028;27;20555;-69
2022/07/01 06:10:37;;;;;;;24.70;20.55;;;;;;;21.00;64.82;100614.91;5139197;27;20162;-69
2022/07/01 06:13:04;;;;;;;24.48;20.48;;;;;;;20.99;64.57;100616.78;5139753;27;20055;-69
2022/07/01 06:15:31;;;;;;;25.95;19.00;;;;;;;21.03;64.27;100617.16;5138751;27;20351;-70
2022/07/01 06:17:58;;;;;;;25.92;19.48;;;;;;;21.02;64.31;100623.69;5139444;27;20051;-70
2022/07/01 06:20:25;;;;;;;22.80;18.70;;;;;;;20.93;64.88;100628.63;5138879;27;20142;-69
2022/07/01 06:22:51;;;;;;;30.45;20.20;;;;;;;20.82;65.19;100623.97;5139425;27;20161;-70
2022/07/01 06:25:18;;;;;;;29.83;21.30;;;;;;;20.83;65.43;100621.00;5138861;27;20051;-69
2022/07/01 06:27:45;;;;;;;27.05;21.45;;;;;;;20.83;65.36;100620.16;5137951;27;20043;-68
2022/07/01 06:30:12;;;;;;;25.50;21.60;;;;;;;20.98;64.70;100620.59;5138643;27;20047;-68
2022/07/01 06:32:39;;;;;;;26.60;20.42;;;;;;;20.87;65.37;100622.22;5136892;27;20086;-69
2022/07/01 06:35:07;;;;;;;31.13;20.50;;;;;;;21.00;64.71;100623.91;5138450;27;20137;-68
2022/07/01 06:37:35;;;;;;;29.80;20.75;;;;;;;20.96;65.00;100627.34;5138604;27;20047;-69
2022/07/01 06:40:06;;;;;;;27.05;20.42;;;;;;;21.00;64.60;100625.81;5138989;27;20506;-69
2022/07/01 06:42:33;;;;;;;34.20;20.67;;;;;;;21.02;64.73;100619.06;5139243;27;20078;-70
2022/07/01 06:45:00;;;;;;;28.60;20.83;;;;;;;21.00;64.83;100615.72;5139007;27;20086;-68
2022/07/01 06:47:27;;;;;;;25.92;20.90;;;;;;;21.21;63.78;100616.28;5138396;27;20069;-69
2022/07/01 06:49:54;;;;;;;22.25;19.75;;;;;;;21.06;64.43;100619.44;5138711;27;20055;-69
2022/07/01 06:52:25;;;;;;;29.83;20.23;;;;;;;21.24;63.92;100605.75;5140232;27;20456;-69
2022/07/01 06:54:51;;;;;;;22.08;19.67;;;;;;;21.14;64.41;100619.94;5140391;27;20130;-69
2022/07/01 06:57:18;;;;;;;24.92;20.33;;;;;;;21.20;64.03;100607.28;5140381;27;20142;-69
2022/07/01 06:59:44;;;;;;;24.02;19.85;;;;;;;21.40;63.25;100611.59;5139889;27;20126;-69
2022/07/01 07:02:11;;;;;;;23.05;19.40;;;;;;;21.28;63.24;100617.84;5138713;27;20134;-68
2022/07/01 07:04:37;;;;;;;22.52;19.77;;;;;;;21.47;63.17;100615.06;5138028;27;20099;-69
2022/07/01 07:07:24;;;;;;;22.25;19.65;;;;;;;21.34;63.08;100610.63;5137611;27;20047;-70
2022/07/01 07:09:51;;;;;;;22.52;18.95;;;;;;;21.36;63.05;100609.34;5138019;27;20110;-68
2022/07/01 07:12:17;;;;;;;28.95;19.92;;;;;;;21.27;62.95;100602.56;5138393;27;20444;-69
2022/07/01 07:14:44;;;;;;;25.05;19.30;;;;;;;21.29;62.07;100608.63;5138057;27;20082;-69
2022/07/01 07:17:10;;;;;;;19.58;17.38;;;;;;;21.27;61.65;100607.19;5138681;27;20070;-68
2022/07/01 07:19:37;;;;;;;21.55;16.65;;;;;;;21.34;61.32;100611.47;5139409;27;20050;-69
2022/07/01 07:22:04;;;;;;;19.23;15.57;;;;;;;21.36;60.71;100608.50;5138919;27;20078;-69
2022/07/01 07:24:30;;;;;;;16.42;14.23;;;;;;;21.65;59.87;100612.22;5138423;27;20062;-69
2022/07/01 07:26:57;;;;;;;19.20;13.93;;;;;;;21.90;57.38;100608.44;5139078;27;20491;-69
2022/07/01 07:29:23;;;;;;;20.05;13.43;;;;;;;21.96;57.31;100608.31;5138669;27;20081;-69
2022/07/01 07:31:50;;;;;;;17.27;12.38;;;;;;;22.08;56.77;100608.31;5139148;27;20063;-69
2022/07/01 07:34:16;;;;;;;16.17;12.73;;;;;;;22.23;55.86;100596.91;5139272;27;20129;-69
2022/07/01 07:36:43;;;;;;;21.05;12.35;;;;;;;22.44;55.36;100598.97;5139380;27;20134;-69
2022/07/01 07:39:09;;;;;;;16.25;12.10;;;;;;;22.39;54.91;100598.03;5139243;27;20047;-69
2022/07/01 07:41:36;;;;;;;18.30;11.05;;;;;;;22.17;55.24;100590.47;5139090;27;20051;-69
2022/07/01 07:44:02;;;;;;;15.00;11.48;;;;;;;22.65;53.62;100599.41;5139300;27;20054;-69
2022/07/01 07:46:29;;;;;;;15.93;11.65;;;;;;;22.42;54.33;100603.00;5139383;27;20484;-69
2022/07/01 07:48:56;;;;;;;16.63;10.52;;;;;;;22.63;53.58;100596.91;5139419;27;20050;-69
2022/07/01 07:51:22;;;;;;;15.55;11.05;;;;;;;22.75;52.77;100603.19;5138864;27;20092;-70
2022/07/01 07:53:52;;;;;;;11.68;10.18;;;;;;;22.89;52.41;100609.19;5138713;27;20054;-69
2022/07/01 07:56:19;;;;;;;15.40;10.40;;;;;;;22.84;52.10;100609.06;5139507;27;20112;-68
2022/07/01 07:58:45;;;;;;;16.85;9.65;;;;;;;22.42;53.22;100608.47;5138721;27;20046;-69
2022/07/01 08:01:12;;;;;;;11.38;9.05;;;;;;;22.40;53.12;100602.44;5138679;27;20115;-69
2022/07/01 08:03:38;;;;;;;12.80;9.35;;;;;;;22.51;52.24;100596.97;5138424;27;20086;-68
2022/07/01 08:06:05;;;;;;;14.82;10.00;;;;;;;22.94;52.01;100597.50;5139126;27;20102;-69
2022/07/01 08:08:32;;;;;;;16.38;10.10;;;;;;;22.91;51.69;100604.28;5138616;27;20466;-69
2022/07/01 08:10:59;;;;;;;15.48;10.63;;;;;;;22.86;52.32;100600.63;5138846;27;20086;-69
2022/07/01 08:13:26;;;;;;;13.40;10.57;;;;;;;22.91;52.07;100603.44;5138882;27;20138;-69
2022/07/01 08:15:52;;;;;;;14.52;10.60;;;;;;;22.90;52.69;100601.81;5138132;27;20050;-68
2022/07/01 08:18:19;;;;;;;12.40;10.43;;;;;;;23.14;51.84;100600.63;5138389;27;20098;-69
2022/07/01 08:20:46;;;;;;;13.77;11.05;;;;;;;23.22;51.75;100600.22;5138954;27;20051;-69
2022/07/01 08:23:13;;;;;;;15.20;11.10;;;;;;;23.42;51.20;100604.38;5138392;27;20047;-69
2022/07/01 08:25:40;;;;;;;15.85;10.85;;;;;;;23.26;51.67;100603.28;5139430;27;20134;-68
2022/07/01 08:28:06;;;;;;;14.88;10.88;;;;;;;23.47;51.77;100607.22;5138359;27;20134;-69
2022/07/01 08:30:33;;;;;;;17.00;11.30;;;;;;;23.48;51.79;100614.34;5138136;27;20085;-67
2022/07/01 08:33:00;;;;;;;17.50;11.52;;;;;;;23.47;51.76;100610.78;5138213;27;20038;-68
2022/07/01 08:35:26;;;;;;;13.02;11.57;;;;;;;23.37;52.21;100612.53;5138650;27;20051;-68
2022/07/01 08:37:53;;;;;;;19.63;10.95;;;;;;;23.81;50.90;100612.69;5140065;27;20051;-68
2022/07/01 08:40:24;;;;;;;14.63;10.05;;;;;;;23.56;50.90;100616.66;5138317;27;20047;-68
2022/07/01 08:43:04;;;;;;;10.38;8.75;;;;;;;23.40;50.95;100614.75;5138368;27;20506;-68
2022/07/01 08:45:33;;;;;;;10.80;8.20;;;;;;;23.92;49.54;100615.34;5138465;27;20138;-68
2022/07/01 08:48:00;;;;;;;12.43;8.48;;;;;;;24.00;49.03;100616.81;5138755;27;20047;-68
2022/07/01 08:50:35;;;;;;;12.85;8.38;;;;;;;23.89;49.44;100612.28;5138210;27;20047;-68
2022/07/01 08:53:03;;;;;;;10.57;7.97;;;;;;;23.54;50.13;100624.31;5138031;27;20050;-68
2022/07/01 08:55:31;;;;;;;10.48;8.13;;;;;;;24.18;48.63;100613.78;5137221;27;20086;-68
2022/07/01 08:57:58;;;;;;;10.93;7.63;;;;;;;24.02;48.58;100624.78;5138329;28;20162;-68
2022/07/01 09:00:31;;;;;;;12.90;7.45;;;;;;;23.56;49.80;100619.41;5137162;28;20054;-68
2022/07/01 09:03:02;;;;;;;13.18;8.05;;;;;;;23.42;50.11;100629.03;5137269;28;20090;-68
2022/07/01 09:05:31;;;;;;;13.20;7.43;;;;;;;23.86;49.16;100645.66;5137594;28;20058;-69
2022/07/01 09:08:00;;;;;;;14.02;8.15;;;;;;;23.08;50.89;100648.09;5137036;28;20081;-68
2022/07/01 09:10:28;;;;;;;13.52;7.30;;;;;;;22.76;51.62;100650.50;5137677;28;20483;-68
2022/07/01 09:12:55;;;;;;;8.80;6.00;;;;;;;22.49;53.13;100644.75;5136407;28;20129;-71
2022/07/01 09:15:27;;;;;;;8.20;3.70;;;;;;;22.07;54.83;100675.78;5135553;27;20134;-69
2022/07/01 09:17:56;;;;;;;8.75;4.05;;;;;;;21.98;55.61;100679.09;5135798;28;20138;-72
2022/07/01 09:20:25;;;;;;;6.32;3.13;;;;;;;21.89;55.94;100699.66;5135884;28;20458;-72
2022/07/01 09:22:58;;;;;;;12.43;2.90;;;;;;;21.77;56.14;100708.63;5136294;28;20461;-71
2022/07/01 09:25:37;;;;;;;7.93;2.17;;;;;;;21.41;56.83;100725.97;5136375;28;20066;-71
2022/07/01 09:28:16;;;;;;;13.48;2.40;;;;;;;20.97;57.26;100732.63;5135006;28;20059;-68
2022/07/01 09:30:45;;;;;;;10.38;2.40;;;;;;;20.80;57.36;100725.09;5136246;28;20083;-72
2022/07/01 09:33:19;;;;;;;8.18;2.08;;;;;;;20.57;57.83;100738.56;5135245;28;20506;-72
2022/07/01 09:35:50;;;;;;;10.50;1.65;;;;;;;20.26;58.26;100745.75;5135250;28;20046;-72
2022/07/01 09:38:22;;;;;;;5.65;1.40;;;;;;;20.24;58.18;100757.91;5135078;28;20049;-72
2022/07/01 09:41:00;;;;;;;6.60;1.23;;;;;;;19.98;59.22;100751.66;5134827;28;20051;-72
2022/07/01 09:43:33;;;;;;;4.65;1.70;;;;;;;20.07;58.46;100755.75;5135011;28;20538;-72
2022/07/01 09:46:07;;;;;;;2.08;1.25;;;;;;;19.87;58.60;100769.53;5116488;28;20061;-72
2022/07/01 09:48:34;;;;;;;7.65;1.25;;;;;;;19.77;58.86;100769.19;5134719;28;20050;-72
2022/07/01 09:51:03;;;;;;;4.57;1.17;;;;;;;19.57;59.04;100782.06;5134766;28;20100;-72
2022/07/01 09:53:30;;;;;;;4.22;1.58;;;;;;;19.57;59.17;100793.78;5134416;28;20047;-72
2022/07/01 09:55:57;;;;;;;2.72;1.38;;;;;;;19.50;59.68;100812.03;5134642;28;20066;-72
2022/07/01 09:58:24;;;;;;;1.75;1.27;;;;;;;19.53;59.20;100811.59;5134940;28;20495;-72
2022/07/01 10:00:52;;;;;;;7.82;1.23;;;;;;;19.26;59.79;100810.88;5134975;28;20051;-72
2022/07/01 10:03:20;;;;;;;3.60;1.00;;;;;;;19.43;59.21;100806.59;5134449;28;20497;-72
2022/07/01 10:05:50;;;;;;;5.57;1.00;;;;;;;19.36;59.03;100802.25;5134354;28;20055;-72
2022/07/01 10:08:55;;;;;;;2.03;1.10;;;;;;;19.34;59.19;100802.47;5137228;27;20043;-72
2022/07/01 10:11:43;;;;;;;5.35;1.17;;;;;;;19.23;59.38;100814.03;5125361;27;20146;-72
2022/07/01 10:14:13;;;;;;;4.35;1.15;;;;;;;19.32;59.17;100814.63;5138956;27;20394;-72
2022/07/01 10:16:40;;;;;;;5.22;1.40;;;;;;;19.13;59.60;100822.63;5138233;27;20537;-72
2022/07/01 10:19:27;;;;;;;4.93;1.15;;;;;;;19.25;59.46;100845.41;5138376;27;20414;-72
2022/07/01 10:21:56;;;;;;;1.80;1.02;;;;;;;19.25;59.53;100847.28;5138006;27;20086;-72
2022/07/01 10:24:25;;;;;;;3.35;1.33;;;;;;;19.15;59.65;100852.34;5137802;27;20107;-72
2022/07/01 10:26:57;;;;;;;3.15;1.30;;;;;;;19.05;59.85;100843.78;5138362;27;20062;-71
2022/07/01 10:29:30;;;;;;;4.95;1.15;;;;;;;19.00;59.82;100861.59;5137582;27;20083;-72
2022/07/01 10:32:22;;;;;;;8.52;1.48;;;;;;;19.08;59.68;100867.84;5137990;27;20054;-72
2022/07/01 10:35:09;;;;;;;4.07;1.13;;;;;;;19.16;59.33;100848.56;5138193;27;20502;-72
2022/07/01 10:37:56;;;;;;;1.48;0.90;;;;;;;19.08;59.52;100846.94;5137850;27;20081;-72
2022/07/01 10:40:48;;;;;;;5.55;1.20;;;;;;;18.85;60.10;100862.84;5138317;27;20047;-72
2022/07/01 10:43:17;;;;;;;4.50;1.00;;;;;;;18.96;59.83;100859.50;5138573;27;20055;-71
2022/07/01 10:45:54;;;;;;;2.72;0.90;;;;;;;18.91;59.83;100856.56;5137240;27;20388;-71
2022/07/01 10:48:23;;;;;;;5.00;0.75;;;;;;;18.91;59.76;100840.25;5137374;27;20391;-71
2022/07/01 10:50:50;;;;;;;1.83;0.77;;;;;;;18.75;60.01;100882.28;5137629;27;20383;-72
2022/07/01 10:53:18;;;;;;;0.88;0.50;;;;;;;18.89;59.75;100899.41;5137377;27;20058;-71
2022/07/01 10:55:48;;;;;;;1.52;0.70;;;;;;;18.90;59.68;100855.72;5137584;27;20043;-71
2022/07/01 10:58:20;;;;;;;0.60;0.43;;;;;;;18.78;60.02;100879.16;5137155;27;20047;-71
2022/07/01 11:00:50;;;;;;;2.25;0.80;;;;;;;18.65;60.73;100903.59;5137267;27;20149;-72
2022/07/01 11:03:23;;;;;;;0.70;0.40;;;;;;;18.82;60.05;100895.88;5137472;27;20477;-71
2022/07/01 11:05:53;;;;;;;1.67;0.68;;;;;;;18.73;60.59;100890.66;5137498;27;20402;-72
2022/07/01 11:08:20;;;;;;;4.32;0.57;;;;;;;18.61;61.09;100905.91;5136950;27;20498;-72
2022/07/01 11:10:58;;;;;;;1.27;0.50;;;;;;;18.40;61.55;100909.66;5137673;27;20096;-73
2022/07/01 11:13:26;;;;;;;0.85;0.60;;;;;;;18.36;61.74;100896.72;5137148;27;20467;-72
2022/07/01 11:15:53;;;;;;;3.97;0.50;;;;;;;18.29;62.15;100885.84;5137101;27;20449;-73
2022/07/01 11:18:21;;;;;;;3.70;0.80;;;;;;;18.24;62.65;100878.31;5136217;27;20475;-72
2022/07/01 11:20:47;;;;;;;9.48;0.90;;;;;;;18.22;62.92;100883.13;5136794;27;20096;-71
2022/07/01 11:23:16;;;;;;;2.15;0.93;;;;;;;18.30;63.11;100872.03;5136532;27;20486;-72
2022/07/01 11:25:43;;;;;;;6.15;0.90;;;;;;;18.33;63.14;100875.41;5137086;27;20062;-72
2022/07/01 11:28:11;;;;;;;4.47;1.00;;;;;;;18.24;64.12;100891.91;5136291;27;20359;-72